createdAt,value
2018-09-10T00:00:36.058Z,15.39
2018-09-10T00:01:44.706Z,15.47
2018-09-10T00:02:53.614Z,15.39
2018-09-10T00:04:02.525Z,15.36
2018-09-10T00:05:11.165Z,15.33
2018-09-10T00:06:19.812Z,15.29
2018-09-10T00:07:28.456Z,15.36
2018-09-10T00:08:37.104Z,15.3
2018-09-10T00:09:45.751Z,15.3
2018-09-10T00:10:54.391Z,15.32
2018-09-10T00:12:03.037Z,15.39
2018-09-10T00:13:11.946Z,15.43
2018-09-10T00:14:20.596Z,15.37
2018-09-10T00:15:29.237Z,15.39
2018-09-10T00:16:37.885Z,15.45
2018-09-10T00:17:46.789Z,15.47
2018-09-10T00:18:55.444Z,15.47
2018-09-10T00:20:04.079Z,15.45
2018-09-10T00:21:13.025Z,15.51
2018-09-10T00:22:21.665Z,15.5
2018-09-10T00:23:30.579Z,15.62
2018-09-10T00:24:39.223Z,15.54
2018-09-10T00:25:47.866Z,15.47
2018-09-10T00:26:56.508Z,15.52
2018-09-10T00:28:05.409Z,15.52
2018-09-10T00:29:14.063Z,15.62
2018-09-10T00:30:22.703Z,15.57
2018-09-10T00:31:31.351Z,15.57
2018-09-10T00:32:39.987Z,15.55
2018-09-10T00:33:48.639Z,15.62
2018-09-10T00:34:57.546Z,15.62
2018-09-10T00:36:06.197Z,15.6
2018-09-10T00:37:14.837Z,15.65
2018-09-10T00:38:23.490Z,15.54
2018-09-10T00:39:32.183Z,15.59
2018-09-10T00:40:40.783Z,15.62
2018-09-10T00:41:49.424Z,15.52
2018-09-10T00:42:58.070Z,15.52
2018-09-10T00:44:06.993Z,15.51
2018-09-10T00:45:15.640Z,15.55
2018-09-10T00:46:24.287Z,15.51
2018-09-10T00:47:32.923Z,15.5
2018-09-10T00:48:41.835Z,15.57
2018-09-10T00:49:50.475Z,15.43
2018-09-10T00:50:59.131Z,15.51
2018-09-10T00:52:07.767Z,15.51
2018-09-10T00:53:16.421Z,15.41
2018-09-10T00:54:25.059Z,15.43
2018-09-10T00:55:33.981Z,15.47
2018-09-10T00:56:42.880Z,15.39
2018-09-10T00:57:51.529Z,15.41
2018-09-10T00:59:00.172Z,15.39
2018-09-10T01:00:08.826Z,15.35
2018-09-10T01:01:17.467Z,15.39
2018-09-10T01:02:26.107Z,15.37
2018-09-10T01:03:35.011Z,15.3
2018-09-10T01:04:43.660Z,15.3
2018-09-10T01:05:52.314Z,15.3
2018-09-10T01:07:00.954Z,15.36
2018-09-10T01:08:09.870Z,15.35
2018-09-10T01:09:19.030Z,15.29
2018-09-10T01:10:27.685Z,15.29
2018-09-10T01:11:36.325Z,15.36
2018-09-10T01:12:45.241Z,15.41
2018-09-10T01:13:53.886Z,15.39
2018-09-10T01:15:02.780Z,15.45
2018-09-10T01:16:11.433Z,15.44
2018-09-10T01:17:20.074Z,15.55
2018-09-10T01:18:28.728Z,15.52
2018-09-10T01:19:37.371Z,15.51
2018-09-10T01:20:46.013Z,15.54
2018-09-10T01:21:54.659Z,15.6
2018-09-10T01:23:03.562Z,15.57
2018-09-10T01:24:12.481Z,15.51
2018-09-10T01:25:21.391Z,15.55
2018-09-10T01:26:30.047Z,15.48
2018-09-10T01:27:38.675Z,15.5
2018-09-10T01:28:47.608Z,15.48
2018-09-10T01:29:56.509Z,15.5
2018-09-10T01:31:05.428Z,15.59
2018-09-10T01:32:14.063Z,15.59
2018-09-10T01:33:22.718Z,15.54
2018-09-10T01:34:31.379Z,15.57
2018-09-10T01:35:40.284Z,15.63
2018-09-10T01:36:48.921Z,15.62
2018-09-10T01:37:57.569Z,15.55
2018-09-10T01:39:06.229Z,15.57
2018-09-10T01:40:14.869Z,15.63
2018-09-10T01:41:23.515Z,15.59
2018-09-10T01:42:32.151Z,15.62
2018-09-10T01:43:40.797Z,15.57
2018-09-10T01:44:49.440Z,15.65
2018-09-10T01:45:58.097Z,15.66
2018-09-10T01:47:06.733Z,15.63
2018-09-10T01:48:15.383Z,15.63
2018-09-10T01:49:24.027Z,15.63
2018-09-10T01:50:32.681Z,15.63
2018-09-10T01:51:41.320Z,15.7
2018-09-10T01:52:49.966Z,15.62
2018-09-10T01:53:58.607Z,15.66
2018-09-10T01:55:07.261Z,15.62
2018-09-10T01:56:15.903Z,15.66
2018-09-10T01:57:24.544Z,15.69
2018-09-10T01:58:33.459Z,15.7
2018-09-10T01:59:42.103Z,15.66
2018-09-10T02:00:51.022Z,15.62
2018-09-10T02:01:59.662Z,15.63
2018-09-10T02:03:08.311Z,15.65
2018-09-10T02:04:16.944Z,15.59
2018-09-10T02:05:25.597Z,15.5
2018-09-10T02:06:34.238Z,15.52
2018-09-10T02:07:43.149Z,15.54
2018-09-10T02:08:51.791Z,15.52
2018-09-10T02:10:00.444Z,15.51
2018-09-10T02:11:09.090Z,15.48
2018-09-10T02:12:17.732Z,15.6
2018-09-10T02:13:26.372Z,15.59
2018-09-10T02:14:35.021Z,15.45
2018-09-10T02:15:43.661Z,15.48
2018-09-10T02:16:52.308Z,15.5
2018-09-10T02:18:00.956Z,15.54
2018-09-10T02:19:09.595Z,15.39
2018-09-10T02:20:18.528Z,15.39
2018-09-10T02:21:27.171Z,15.44
2018-09-10T02:22:35.818Z,15.41
2018-09-10T02:23:44.515Z,15.48
2018-09-10T02:24:53.105Z,15.52
2018-09-10T02:26:02.008Z,15.41
2018-09-10T02:27:10.659Z,15.5
2018-09-10T02:28:19.302Z,15.43
2018-09-10T02:29:28.473Z,15.45
2018-09-10T02:30:37.124Z,15.43
2018-09-10T02:31:45.774Z,15.48
2018-09-10T02:32:54.683Z,15.43
2018-09-10T02:34:03.335Z,15.48
2018-09-10T02:35:11.977Z,15.5
2018-09-10T02:36:20.882Z,15.5
2018-09-10T02:37:29.533Z,15.36
2018-09-10T02:38:38.487Z,15.41
2018-09-10T02:39:47.080Z,15.39
2018-09-10T02:40:55.721Z,15.41
2018-09-10T02:42:04.370Z,15.43
2018-09-10T02:43:13.281Z,15.41
2018-09-10T02:44:21.933Z,15.33
2018-09-10T02:45:30.575Z,15.3
2018-09-10T02:46:39.494Z,15.33
2018-09-10T02:47:48.137Z,15.25
2018-09-10T02:48:56.784Z,15.3
2018-09-10T02:50:05.688Z,15.32
2018-09-10T02:51:14.337Z,15.3
2018-09-10T02:52:22.983Z,15.22
2018-09-10T02:53:31.642Z,15.27
2018-09-10T02:54:40.552Z,15.3
2018-09-10T02:55:49.452Z,15.29
2018-09-10T02:56:58.097Z,15.25
2018-09-10T02:58:06.749Z,15.25
2018-09-10T02:59:15.923Z,15.19
2018-09-10T03:00:24.831Z,15.18
2018-09-10T03:01:33.473Z,15.1
2018-09-10T03:02:42.120Z,15.15
2018-09-10T03:03:50.772Z,15.14
2018-09-10T03:04:59.419Z,15.18
2018-09-10T03:06:08.327Z,15.02
2018-09-10T03:07:16.969Z,15.04
2018-09-10T03:08:25.621Z,15.05
2018-09-10T03:09:34.808Z,15
2018-09-10T03:10:43.437Z,15
2018-09-10T03:11:52.085Z,15.05
2018-09-10T03:13:00.732Z,15
2018-09-10T03:14:09.652Z,14.97
2018-09-10T03:15:18.824Z,14.97
2018-09-10T03:16:27.474Z,14.94
2018-09-10T03:17:36.370Z,15.02
2018-09-10T03:18:45.029Z,14.99
2018-09-10T03:19:53.669Z,14.93
2018-09-10T03:21:02.317Z,14.9
2018-09-10T03:22:11.226Z,14.97
2018-09-10T03:23:20.158Z,14.93
2018-09-10T03:24:28.798Z,14.93
2018-09-10T03:25:37.449Z,14.99
2018-09-10T03:26:46.084Z,15.05
2018-09-10T03:27:54.995Z,14.96
2018-09-10T03:29:03.648Z,14.94
2018-09-10T03:30:12.305Z,14.92
2018-09-10T03:31:20.973Z,14.92
2018-09-10T03:32:29.604Z,14.85
2018-09-10T03:33:38.339Z,14.94
2018-09-10T03:34:47.301Z,14.92
2018-09-10T03:35:56.221Z,15.04
2018-09-10T03:37:04.858Z,14.92
2018-09-10T03:38:13.509Z,14.94
2018-09-10T03:39:22.150Z,15.05
2018-09-10T03:40:30.800Z,15.05
2018-09-10T03:41:39.700Z,15.07
2018-09-10T03:42:48.352Z,15.07
2018-09-10T03:43:57.257Z,15.07
2018-09-10T03:45:05.913Z,15.05
2018-09-10T03:46:14.562Z,15.04
2018-09-10T03:47:23.300Z,15.08
2018-09-10T03:48:31.843Z,15.1
2018-09-10T03:49:40.755Z,15.14
2018-09-10T03:50:49.404Z,15.17
2018-09-10T03:51:58.042Z,15.11
2018-09-10T03:53:06.690Z,15.15
2018-09-10T03:54:15.327Z,15.27
2018-09-10T03:55:23.981Z,15.25
2018-09-10T03:56:32.624Z,15.26
2018-09-10T03:57:41.277Z,15.27
2018-09-10T03:58:49.915Z,15.27
2018-09-10T03:59:58.570Z,15.26
2018-09-10T04:01:07.210Z,15.43
2018-09-10T04:02:16.139Z,15.33
2018-09-10T04:03:25.036Z,15.35
2018-09-10T04:04:33.945Z,15.39
2018-09-10T04:05:42.597Z,15.36
2018-09-10T04:06:51.250Z,15.27
2018-09-10T04:08:00.164Z,15.35
2018-09-10T04:09:08.803Z,15.32
2018-09-10T04:10:17.447Z,15.33
2018-09-10T04:11:26.106Z,15.3
2018-09-10T04:12:35.017Z,15.37
2018-09-10T04:13:43.657Z,15.37
2018-09-10T04:14:52.303Z,15.27
2018-09-10T04:16:00.948Z,15.3
2018-09-10T04:17:09.883Z,15.3
2018-09-10T04:18:18.503Z,15.27
2018-09-10T04:19:27.154Z,15.3
2018-09-10T04:20:35.800Z,15.3
2018-09-10T04:21:44.713Z,15.43
2018-09-10T04:22:53.368Z,15.32
2018-09-10T04:24:02.271Z,15.27
2018-09-10T04:25:10.913Z,15.32
2018-09-10T04:26:19.558Z,15.3
2018-09-10T04:27:28.206Z,15.33
2018-09-10T04:28:36.851Z,15.26
2018-09-10T04:29:45.494Z,15.27
2018-09-10T04:30:54.401Z,15.29
2018-09-10T04:32:03.046Z,15.32
2018-09-10T04:33:11.689Z,15.27
2018-09-10T04:34:20.335Z,15.26
2018-09-10T04:35:28.976Z,15.22
2018-09-10T04:36:37.625Z,15.29
2018-09-10T04:37:46.526Z,15.27
2018-09-10T04:38:55.178Z,15.26
2018-09-10T04:40:03.812Z,15.26
2018-09-10T04:41:12.729Z,15.3
2018-09-10T04:42:21.451Z,15.32
2018-09-10T04:43:30.418Z,15.35
2018-09-10T04:44:39.066Z,15.26
2018-09-10T04:45:47.704Z,15.22
2018-09-10T04:46:56.352Z,15.29
2018-09-10T04:48:04.996Z,15.32
2018-09-10T04:49:13.910Z,15.35
2018-09-10T04:50:22.551Z,15.3
2018-09-10T04:51:31.465Z,15.27
2018-09-10T04:52:40.110Z,15.27
2018-09-10T04:53:49.020Z,15.44
2018-09-10T04:54:57.934Z,15.36
2018-09-10T04:56:06.592Z,15.45
2018-09-10T04:57:15.230Z,15.44
2018-09-10T04:58:23.884Z,15.5
2018-09-10T04:59:32.533Z,15.51
2018-09-10T05:00:41.177Z,15.54
2018-09-10T05:01:50.093Z,15.54
2018-09-10T05:02:58.739Z,15.48
2018-09-10T05:04:07.383Z,15.6
2018-09-10T05:05:16.032Z,15.55
2018-09-10T05:06:24.675Z,15.62
2018-09-10T05:07:33.325Z,15.66
2018-09-10T05:08:41.973Z,15.63
2018-09-10T05:09:50.636Z,15.66
2018-09-10T05:10:59.620Z,15.65
2018-09-10T05:12:08.272Z,15.65
2018-09-10T05:13:16.915Z,15.63
2018-09-10T05:14:25.571Z,15.69
2018-09-10T05:15:34.475Z,15.63
2018-09-10T05:16:43.432Z,15.72
2018-09-10T05:17:52.344Z,15.63
2018-09-10T05:19:00.990Z,15.65
2018-09-10T05:20:09.631Z,15.65
2018-09-10T05:21:18.278Z,15.59
2018-09-10T05:22:26.928Z,15.59
2018-09-10T05:23:35.578Z,15.6
2018-09-10T05:24:44.498Z,15.5
2018-09-10T05:25:53.139Z,15.52
2018-09-10T05:27:01.800Z,15.52
2018-09-10T05:28:10.458Z,15.57
2018-09-10T05:29:19.094Z,15.48
2018-09-10T05:30:27.999Z,15.5
2018-09-10T05:31:36.927Z,15.65
2018-09-10T05:32:45.566Z,15.6
2018-09-10T05:33:54.485Z,15.55
2018-09-10T05:35:03.385Z,15.62
2018-09-10T05:36:12.300Z,15.55
2018-09-10T05:37:20.947Z,15.65
2018-09-10T05:38:29.852Z,15.69
2018-09-10T05:39:38.766Z,15.62
2018-09-10T05:40:47.406Z,15.66
2018-09-10T05:41:56.050Z,15.66
2018-09-10T05:43:04.696Z,15.63
2018-09-10T05:44:13.620Z,15.69
2018-09-10T05:45:22.264Z,15.67
2018-09-10T05:46:30.908Z,15.75
2018-09-10T05:47:39.659Z,15.63
2018-09-10T05:48:48.202Z,15.75
2018-09-10T05:49:56.844Z,15.75
2018-09-10T05:51:05.773Z,15.75
2018-09-10T05:52:14.415Z,15.76
2018-09-10T05:53:23.168Z,15.76
2018-09-10T05:54:31.724Z,15.78
2018-09-10T05:55:40.500Z,15.83
2018-09-10T05:56:49.010Z,15.88
2018-09-10T05:57:57.920Z,15.85
2018-09-10T05:59:06.565Z,15.87
2018-09-10T06:00:15.213Z,15.8
2018-09-10T06:01:23.860Z,15.87
2018-09-10T06:02:32.502Z,15.87
2018-09-10T06:03:41.154Z,15.85
2018-09-10T06:04:49.797Z,15.84
2018-09-10T06:05:58.443Z,15.84
2018-09-10T06:07:07.082Z,15.91
2018-09-10T06:08:16.005Z,15.94
2018-09-10T06:09:24.646Z,15.99
2018-09-10T06:10:33.380Z,16.03
2018-09-10T06:11:41.931Z,16.13
2018-09-10T06:12:50.579Z,16.25
2018-09-10T06:13:59.229Z,16.17
2018-09-10T06:15:07.878Z,16.24
2018-09-10T06:16:16.587Z,16.28
2018-09-10T06:17:25.167Z,16.28
2018-09-10T06:18:34.351Z,16.4
2018-09-10T06:19:43.259Z,16.46
2018-09-10T06:20:52.183Z,16.47
2018-09-10T06:22:00.818Z,16.51
2018-09-10T06:23:09.470Z,16.58
2018-09-10T06:24:18.116Z,16.62
2018-09-10T06:25:27.594Z,16.64
2018-09-10T06:26:36.498Z,16.66
2018-09-10T06:27:45.144Z,16.69
2018-09-10T06:28:53.789Z,16.73
2018-09-10T06:30:02.444Z,16.87
2018-09-10T06:31:11.089Z,16.99
2018-09-10T06:32:19.728Z,17.07
2018-09-10T06:33:28.372Z,17.13
2018-09-10T06:34:37.016Z,17.19
2018-09-10T06:35:45.672Z,17.17
2018-09-10T06:36:54.663Z,17.31
2018-09-10T06:38:03.221Z,17.37
2018-09-10T06:39:11.859Z,17.37
2018-09-10T06:40:20.514Z,17.32
2018-09-10T06:41:29.156Z,17.32
2018-09-10T06:42:37.805Z,17.41
2018-09-10T06:43:46.445Z,17.44
2018-09-10T06:44:55.103Z,17.38
2018-09-10T06:46:03.750Z,17.31
2018-09-10T06:47:12.394Z,17.39
2018-09-10T06:48:21.292Z,17.47
2018-09-10T06:49:29.942Z,17.5
2018-09-10T06:50:38.856Z,17.42
2018-09-10T06:51:47.763Z,17.54
2018-09-10T06:52:56.413Z,17.5
2018-09-10T06:54:05.052Z,17.54
2018-09-10T06:55:13.701Z,17.65
2018-09-10T06:56:22.342Z,17.6
2018-09-10T06:57:30.996Z,17.66
2018-09-10T06:58:39.643Z,17.65
2018-09-10T06:59:48.287Z,17.69
2018-09-10T07:00:57.185Z,17.72
2018-09-10T07:02:05.852Z,17.69
2018-09-10T07:03:14.488Z,17.69
2018-09-10T07:04:23.396Z,17.65
2018-09-10T07:05:32.042Z,17.72
2018-09-10T07:06:40.701Z,17.72
2018-09-10T07:07:49.340Z,17.65
2018-09-10T07:08:57.983Z,17.68
2018-09-10T07:10:06.891Z,17.69
2018-09-10T07:11:15.534Z,17.75
2018-09-10T07:12:24.187Z,17.75
2018-09-10T07:13:33.091Z,17.82
2018-09-10T07:14:41.738Z,17.84
2018-09-10T07:15:50.380Z,17.86
2018-09-10T07:16:59.034Z,17.94
2018-09-10T07:18:07.676Z,17.98
2018-09-10T07:19:16.334Z,17.95
2018-09-10T07:20:24.965Z,18.12
2018-09-10T07:21:33.623Z,18.09
2018-09-10T07:22:42.270Z,18.19
2018-09-10T07:23:50.918Z,18.18
2018-09-10T07:24:59.556Z,18.26
2018-09-10T07:26:08.206Z,18.36
2018-09-10T07:27:16.857Z,18.41
2018-09-10T07:28:25.507Z,18.53
2018-09-10T07:29:34.151Z,18.55
2018-09-10T07:30:42.786Z,18.67
2018-09-10T07:31:51.442Z,18.71
2018-09-10T07:33:00.084Z,18.83
2018-09-10T07:34:09.019Z,18.98
2018-09-10T07:35:17.655Z,19.01
2018-09-10T07:36:26.312Z,19.08
2018-09-10T07:37:35.221Z,19.07
2018-09-10T07:38:43.879Z,19.05
2018-09-10T07:39:52.517Z,19.09
2018-09-10T07:41:01.165Z,19.09
2018-09-10T07:42:10.074Z,19.15
2018-09-10T07:43:18.768Z,19.15
2018-09-10T07:44:27.375Z,19.16
2018-09-10T07:45:36.017Z,19.09
2018-09-10T07:46:44.669Z,19.16
2018-09-10T07:47:53.306Z,19.07
2018-09-10T07:49:01.966Z,19.12
2018-09-10T07:50:10.604Z,19.12
2018-09-10T07:51:19.257Z,19.05
2018-09-10T07:52:27.895Z,19.08
2018-09-10T07:53:36.556Z,19.04
2018-09-10T07:54:45.197Z,19
2018-09-10T07:55:53.847Z,19
2018-09-10T07:57:02.486Z,18.98
2018-09-10T07:58:11.139Z,18.96
2018-09-10T07:59:19.784Z,19.04
2018-09-10T08:00:28.693Z,18.89
2018-09-10T08:01:37.331Z,19
2018-09-10T08:02:45.981Z,19
2018-09-10T08:03:54.634Z,18.97
2018-09-10T08:05:03.278Z,18.98
2018-09-10T08:06:11.927Z,19
2018-09-10T08:07:20.835Z,18.94
2018-09-10T08:08:29.482Z,18.94
2018-09-10T08:09:38.468Z,18.97
2018-09-10T08:10:47.043Z,19
2018-09-10T08:11:55.686Z,19.04
2018-09-10T08:13:04.332Z,18.97
2018-09-10T08:14:12.980Z,19
2018-09-10T08:15:21.634Z,19
2018-09-10T08:16:30.326Z,19.08
2018-09-10T08:17:38.930Z,19.04
2018-09-10T08:18:47.575Z,19.12
2018-09-10T08:19:56.226Z,19.19
2018-09-10T08:21:04.870Z,19.19
2018-09-10T08:22:13.518Z,19.12
2018-09-10T08:23:22.164Z,19.16
2018-09-10T08:24:30.888Z,19.19
2018-09-10T08:25:39.864Z,19.27
2018-09-10T08:26:48.512Z,19.23
2018-09-10T08:27:57.160Z,19.24
2018-09-10T08:29:05.804Z,19.24
2018-09-10T08:30:14.455Z,19.26
2018-09-10T08:31:23.101Z,19.37
2018-09-10T08:32:31.747Z,19.41
2018-09-10T08:33:40.390Z,19.44
2018-09-10T08:34:49.039Z,19.39
2018-09-10T08:35:58.283Z,19.53
2018-09-10T08:37:07.804Z,19.53
2018-09-10T08:38:16.443Z,19.52
2018-09-10T08:39:25.093Z,19.57
2018-09-10T08:40:33.740Z,19.49
2018-09-10T08:41:42.390Z,19.49
2018-09-10T08:42:51.067Z,19.55
2018-09-10T08:43:59.692Z,19.53
2018-09-10T08:45:08.603Z,19.49
2018-09-10T08:46:17.253Z,19.47
2018-09-10T08:47:25.906Z,19.49
2018-09-10T08:48:34.810Z,19.47
2018-09-10T08:49:43.722Z,19.45
2018-09-10T08:50:52.369Z,19.49
2018-09-10T08:52:01.289Z,19.48
2018-09-10T08:53:09.932Z,19.56
2018-09-10T08:54:18.818Z,19.59
2018-09-10T08:55:28.031Z,19.62
2018-09-10T08:56:36.477Z,19.71
2018-09-10T08:57:45.398Z,19.71
2018-09-10T08:58:54.329Z,19.7
2018-09-10T09:00:03.257Z,19.74
2018-09-10T09:01:12.169Z,19.74
2018-09-10T09:02:20.853Z,19.79
2018-09-10T09:03:29.789Z,19.82
2018-09-10T09:04:38.695Z,19.92
2018-09-10T09:05:47.536Z,19.93
2018-09-10T09:06:56.250Z,20.1
2018-09-10T09:08:05.202Z,20.04
2018-09-10T09:09:13.743Z,20.1
2018-09-10T09:10:22.394Z,20.17
2018-09-10T09:11:31.038Z,20.11
2018-09-10T09:12:39.690Z,20.21
2018-09-10T09:13:48.337Z,20.15
2018-09-10T09:14:56.998Z,20.18
2018-09-10T09:16:05.635Z,20.26
2018-09-10T09:17:14.284Z,20.17
2018-09-10T09:18:22.933Z,20.22
2018-09-10T09:19:31.575Z,20.29
2018-09-10T09:20:40.226Z,20.33
2018-09-10T09:21:48.877Z,20.24
2018-09-10T09:22:57.527Z,20.32
2018-09-10T09:24:06.173Z,20.44
2018-09-10T09:25:14.823Z,20.6
2018-09-10T09:26:23.472Z,20.59
2018-09-10T09:27:32.380Z,20.74
2018-09-10T09:28:41.026Z,20.73
2018-09-10T09:29:49.695Z,20.92
2018-09-10T09:30:58.327Z,20.98
2018-09-10T09:32:06.980Z,21.03
2018-09-10T09:33:15.622Z,21.15
2018-09-10T09:34:24.282Z,21.15
2018-09-10T09:35:33.038Z,21.28
2018-09-10T09:36:41.953Z,21.23
2018-09-10T09:37:50.597Z,21.26
2018-09-10T09:38:59.505Z,21.25
2018-09-10T09:40:08.419Z,21.17
2018-09-10T09:41:17.068Z,21.28
2018-09-10T09:42:25.987Z,21.26
2018-09-10T09:43:34.632Z,21.25
2018-09-10T09:44:43.281Z,21.26
2018-09-10T09:45:51.935Z,21.28
2018-09-10T09:47:00.589Z,21.23
2018-09-10T09:48:09.234Z,21.25
2018-09-10T09:49:17.907Z,21.19
2018-09-10T09:50:26.744Z,21.17
2018-09-10T09:51:35.664Z,21.04
2018-09-10T09:52:44.311Z,20.9
2018-09-10T09:53:52.959Z,20.89
2018-09-10T09:55:01.609Z,20.89
2018-09-10T09:56:10.254Z,20.9
2018-09-10T09:57:18.908Z,20.92
2018-09-10T09:58:27.827Z,20.92
2018-09-10T09:59:36.746Z,20.9
2018-09-10T10:00:45.698Z,20.9
2018-09-10T10:01:54.709Z,20.93
2018-09-10T10:03:03.367Z,21.04
2018-09-10T10:04:12.099Z,21.13
2018-09-10T10:05:20.921Z,21.14
2018-09-10T10:06:29.577Z,21.29
2018-09-10T10:07:38.231Z,21.25
2018-09-10T10:08:46.876Z,21.28
2018-09-10T10:09:55.516Z,21.35
2018-09-10T10:11:04.175Z,21.3
2018-09-10T10:12:12.869Z,21.32
2018-09-10T10:13:21.476Z,21.3
2018-09-10T10:14:30.130Z,21.26
2018-09-10T10:15:38.791Z,21.17
2018-09-10T10:16:47.446Z,21.11
2018-09-10T10:17:56.095Z,21.04
2018-09-10T10:19:04.749Z,20.95
2018-09-10T10:20:13.395Z,21.01
2018-09-10T10:21:22.040Z,21.1
2018-09-10T10:22:30.683Z,21.14
2018-09-10T10:23:39.342Z,21.14
2018-09-10T10:24:48.158Z,21.14
2018-09-10T10:25:56.969Z,21.14
2018-09-10T10:27:05.621Z,21.2
2018-09-10T10:28:14.375Z,21.19
2018-09-10T10:29:23.625Z,21.25
2018-09-10T10:30:32.270Z,21.19
2018-09-10T10:31:40.916Z,21.17
2018-09-10T10:32:49.562Z,21.15
2018-09-10T10:33:58.487Z,21.19
2018-09-10T10:35:07.392Z,21.22
2018-09-10T10:36:16.052Z,21.2
2018-09-10T10:37:24.694Z,21.23
2018-09-10T10:38:33.354Z,21.22
2018-09-10T10:39:41.998Z,21.22
2018-09-10T10:40:50.651Z,21.15
2018-09-10T10:41:59.290Z,21.28
2018-09-10T10:43:07.948Z,21.25
2018-09-10T10:44:16.595Z,21.25
2018-09-10T10:45:25.246Z,21.28
2018-09-10T10:46:33.886Z,21.28
2018-09-10T10:47:42.538Z,21.22
2018-09-10T10:48:51.192Z,21.29
2018-09-10T10:49:59.850Z,21.25
2018-09-10T10:51:08.502Z,21.25
2018-09-10T10:52:17.141Z,21.25
2018-09-10T10:53:25.794Z,21.17
2018-09-10T10:54:34.496Z,21.13
2018-09-10T10:55:43.180Z,21.19
2018-09-10T10:56:51.825Z,21.14
2018-09-10T10:58:00.476Z,21.05
2018-09-10T10:59:09.122Z,21.08
2018-09-10T11:00:17.780Z,21
2018-09-10T11:01:26.426Z,21.03
2018-09-10T11:02:35.341Z,21.08
2018-09-10T11:03:43.988Z,21.15
2018-09-10T11:04:52.638Z,21.19
2018-09-10T11:06:01.288Z,21.19
2018-09-10T11:07:09.937Z,21.28
2018-09-10T11:08:18.583Z,21.23
2018-09-10T11:09:27.229Z,21.37
2018-09-10T11:10:36.161Z,21.37
2018-09-10T11:11:45.066Z,21.43
2018-09-10T11:12:53.716Z,21.53
2018-09-10T11:14:02.362Z,21.66
2018-09-10T11:15:11.015Z,21.68
2018-09-10T11:16:19.663Z,21.75
2018-09-10T11:17:28.314Z,21.74
2018-09-10T11:18:36.959Z,21.75
2018-09-10T11:19:45.616Z,21.75
2018-09-10T11:20:54.289Z,21.78
2018-09-10T11:22:02.941Z,21.81
2018-09-10T11:23:11.588Z,21.81
2018-09-10T11:24:20.243Z,21.97
2018-09-10T11:25:28.888Z,22.04
2018-09-10T11:26:37.545Z,22.06
2018-09-10T11:27:46.254Z,22.15
2018-09-10T11:28:55.315Z,22.15
2018-09-10T11:30:04.313Z,22.1
2018-09-10T11:31:13.223Z,22.12
2018-09-10T11:32:21.879Z,22.18
2018-09-10T11:33:30.522Z,22.1
2018-09-10T11:34:39.219Z,22.18
2018-09-10T11:35:48.089Z,22.1
2018-09-10T11:36:56.742Z,22.03
2018-09-10T11:38:05.913Z,21.89
2018-09-10T11:39:14.563Z,21.85
2018-09-10T11:40:23.210Z,21.89
2018-09-10T11:41:31.866Z,21.96
2018-09-10T11:42:40.513Z,21.94
2018-09-10T11:43:49.164Z,21.92
2018-09-10T11:44:57.815Z,21.83
2018-09-10T11:46:06.460Z,21.97
2018-09-10T11:47:15.372Z,21.92
2018-09-10T11:48:24.021Z,22
2018-09-10T11:49:32.672Z,21.97
2018-09-10T11:50:41.317Z,22.03
2018-09-10T11:51:49.970Z,22.04
2018-09-10T11:52:58.660Z,22.12
2018-09-10T11:54:07.606Z,22.06
2018-09-10T11:55:17.082Z,21.99
2018-09-10T11:56:25.755Z,22
2018-09-10T11:57:34.699Z,21.99
2018-09-10T11:58:43.350Z,21.97
2018-09-10T11:59:51.990Z,21.99
2018-09-10T12:01:00.652Z,21.99
2018-09-10T12:02:09.328Z,21.99
2018-09-10T12:03:18.068Z,21.96
2018-09-10T12:04:26.737Z,21.94
2018-09-10T12:05:35.430Z,22.01
2018-09-10T12:06:44.143Z,21.97
2018-09-10T12:07:52.812Z,21.99
2018-09-10T12:09:01.787Z,21.89
2018-09-10T12:10:10.769Z,21.89
2018-09-10T12:11:19.427Z,21.97
2018-09-10T12:12:28.651Z,21.96
2018-09-10T12:13:37.769Z,21.88
2018-09-10T12:14:46.430Z,21.84
2018-09-10T12:15:55.383Z,21.85
2018-09-10T12:17:04.042Z,21.88
2018-09-10T12:18:12.700Z,21.89
2018-09-10T12:19:21.367Z,21.85
2018-09-10T12:20:30.044Z,21.81
2018-09-10T12:21:39.089Z,21.78
2018-09-10T12:22:47.600Z,21.84
2018-09-10T12:23:56.257Z,21.83
2018-09-10T12:25:04.900Z,21.83
2018-09-10T12:26:13.828Z,21.85
2018-09-10T12:27:22.468Z,21.83
2018-09-10T12:28:31.229Z,21.81
2018-09-10T12:29:40.264Z,21.89
2018-09-10T12:30:48.927Z,21.94
2018-09-10T12:31:58.087Z,21.75
2018-09-10T12:33:07.046Z,21.75
2018-09-10T12:34:16.053Z,21.65
2018-09-10T12:35:25.170Z,21.68
2018-09-10T12:36:34.176Z,21.77
2018-09-10T12:37:42.833Z,21.8
2018-09-10T12:38:51.521Z,21.88
2018-09-10T12:40:00.204Z,21.84
2018-09-10T12:41:08.855Z,22
2018-09-10T12:42:17.505Z,22.1
2018-09-10T12:43:26.159Z,22.22
2018-09-10T12:44:34.802Z,22.21
2018-09-10T12:45:43.461Z,22.26
2018-09-10T12:46:52.101Z,22.34
2018-09-10T12:48:00.756Z,22.36
2018-09-10T12:49:09.400Z,22.36
2018-09-10T12:50:18.063Z,22.41
2018-09-10T12:51:26.703Z,22.47
2018-09-10T12:52:35.350Z,22.49
2018-09-10T12:53:43.997Z,22.46
2018-09-10T12:54:52.656Z,22.53
2018-09-10T12:56:01.302Z,22.49
2018-09-10T12:57:09.946Z,22.46
2018-09-10T12:58:18.602Z,22.44
2018-09-10T12:59:27.262Z,22.46
2018-09-10T13:00:35.893Z,22.49
2018-09-10T13:01:44.549Z,22.47
2018-09-10T13:02:53.192Z,22.55
2018-09-10T13:04:01.877Z,22.55
2018-09-10T13:05:10.493Z,22.51
2018-09-10T13:06:19.480Z,22.58
2018-09-10T13:07:28.154Z,22.59
2018-09-10T13:08:36.820Z,22.52
2018-09-10T13:09:45.532Z,22.58
2018-09-10T13:10:54.196Z,22.58
2018-09-10T13:12:03.112Z,22.59
2018-09-10T13:13:11.959Z,22.58
2018-09-10T13:14:20.832Z,22.55
2018-09-10T13:15:29.480Z,22.7
2018-09-10T13:16:38.130Z,22.56
2018-09-10T13:17:46.779Z,22.67
2018-09-10T13:18:55.498Z,22.73
2018-09-10T13:20:04.482Z,22.83
2018-09-10T13:21:13.163Z,22.7
2018-09-10T13:22:21.979Z,22.76
2018-09-10T13:23:31.160Z,22.73
2018-09-10T13:24:39.858Z,22.8
2018-09-10T13:25:48.781Z,22.76
2018-09-10T13:26:57.423Z,22.83
2018-09-10T13:28:06.083Z,22.74
2018-09-10T13:29:14.733Z,22.63
2018-09-10T13:30:23.387Z,22.83
2018-09-10T13:31:32.031Z,22.67
2018-09-10T13:32:40.682Z,22.59
2018-09-10T13:33:49.335Z,22.59
2018-09-10T13:34:57.989Z,22.56
2018-09-10T13:36:06.638Z,22.47
2018-09-10T13:37:15.280Z,22.47
2018-09-10T13:38:23.933Z,22.41
2018-09-10T13:39:32.579Z,22.3
2018-09-10T13:40:41.245Z,22.3
2018-09-10T13:41:49.892Z,22.4
2018-09-10T13:42:58.861Z,22.34
2018-09-10T13:44:07.453Z,22.34
2018-09-10T13:45:16.113Z,22.18
2018-09-10T13:46:24.753Z,22.21
2018-09-10T13:47:33.407Z,22.14
2018-09-10T13:48:42.054Z,22.08
2018-09-10T13:49:50.712Z,22.08
2018-09-10T13:50:59.362Z,22.14
2018-09-10T13:52:08.005Z,22.08
2018-09-10T13:53:16.653Z,22.18
2018-09-10T13:54:25.306Z,22.07
2018-09-10T13:55:33.964Z,22
2018-09-10T13:56:42.872Z,22.08
2018-09-10T13:57:51.523Z,22.06
2018-09-10T13:59:00.171Z,22.06
2018-09-10T14:00:08.826Z,22.1
2018-09-10T14:01:17.501Z,22.14
2018-09-10T14:02:26.127Z,22.18
2018-09-10T14:03:34.769Z,22.06
2018-09-10T14:04:43.684Z,22.07
2018-09-10T14:05:52.339Z,22.06
2018-09-10T14:07:01.629Z,22.07
2018-09-10T14:08:10.274Z,22
2018-09-10T14:09:18.932Z,22.01
2018-09-10T14:10:28.350Z,21.89
2018-09-10T14:11:37.067Z,21.84
2018-09-10T14:12:45.984Z,21.83
2018-09-10T14:13:54.637Z,21.84
2018-09-10T14:15:03.280Z,21.78
2018-09-10T14:16:11.929Z,21.7
2018-09-10T14:17:20.850Z,21.75
2018-09-10T14:18:29.498Z,21.69
2018-09-10T14:19:38.157Z,21.7
2018-09-10T14:20:46.808Z,21.63
2018-09-10T14:21:55.463Z,21.56
2018-09-10T14:23:04.110Z,21.6
2018-09-10T14:24:12.762Z,21.6
2018-09-10T14:25:21.410Z,21.63
2018-09-10T14:26:30.068Z,21.62
2018-09-10T14:27:38.716Z,21.68
2018-09-10T14:28:47.368Z,21.68
2018-09-10T14:29:56.017Z,21.65
2018-09-10T14:31:04.661Z,21.68
2018-09-10T14:32:13.316Z,21.78
2018-09-10T14:33:21.966Z,21.68
2018-09-10T14:34:30.649Z,21.69
2018-09-10T14:35:39.259Z,21.69
2018-09-10T14:36:47.921Z,21.68
2018-09-10T14:37:56.563Z,21.69
2018-09-10T14:39:05.216Z,21.66
2018-09-10T14:40:14.130Z,21.63
2018-09-10T14:41:22.785Z,21.6
2018-09-10T14:42:31.696Z,21.63
2018-09-10T14:43:40.348Z,21.62
2018-09-10T14:44:48.995Z,21.59
2018-09-10T14:45:57.647Z,21.54
2018-09-10T14:47:06.296Z,21.53
2018-09-10T14:48:15.215Z,21.53
2018-09-10T14:49:24.135Z,21.56